createdAt,value
2022-12-04T08:33:50.989Z,10736.66
2022-12-04T08:34:55.937Z,12016.22
2022-12-04T08:35:58.701Z,13293.66
2022-12-04T08:37:00.906Z,13933.50
2022-12-04T08:38:03.279Z,14254.09
2022-12-04T08:39:05.443Z,15532.75
2022-12-04T08:40:07.929Z,16490.94
2022-12-04T08:41:12.700Z,16493.38
2022-12-04T08:42:14.825Z,17132.88
2022-12-04T08:43:17.113Z,18092.84
2022-12-04T08:44:19.220Z,18730.94
2022-12-04T08:45:21.296Z,19052.19
2022-12-04T08:46:25.976Z,19374.09
2022-12-04T08:47:28.194Z,20012.88
2022-12-04T08:48:30.841Z,20010.41
2022-12-04T08:49:33.060Z,19691.34
2022-12-04T08:50:35.200Z,19691.63
2022-12-04T08:51:37.536Z,20012.88
2022-12-04T08:52:39.649Z,19374.66
2022-12-04T08:53:41.804Z,20974.19
2022-12-04T08:54:43.933Z,20974.66
2022-12-04T08:55:46.229Z,21616.13
2022-12-04T08:56:48.349Z,21616.13
2022-12-04T08:57:52.466Z,21936.44
2022-12-04T08:58:55.962Z,21615.78
2022-12-04T08:59:58.329Z,21296.16
2022-12-04T09:01:09.497Z,20977.72
2022-12-04T09:02:12.998Z,21936.75
2022-12-04T09:03:17.817Z,22255.94
2022-12-04T09:04:20.145Z,22257.75
2022-12-04T09:05:22.314Z,22897.53
2022-12-04T09:06:25.184Z,22898.56
2022-12-04T09:07:28.943Z,23217.59
2022-12-04T09:08:32.592Z,23220.72
2022-12-04T09:09:35.494Z,23859.94
2022-12-04T09:10:38.344Z,24181.91
2022-12-04T09:11:40.520Z,24826.78
2022-12-04T09:12:42.788Z,25150.47
2022-12-04T09:13:45.853Z,27074.44
2022-12-04T09:14:48.015Z,27715.00
2022-12-04T09:15:50.304Z,27718.34
2022-12-04T09:16:53.273Z,30285.19
2022-12-04T09:17:55.392Z,31571.66
2022-12-04T09:18:57.784Z,32854.66
2022-12-04T09:20:01.336Z,33818.03
2022-12-04T09:21:06.796Z,33501.78
2022-12-04T09:22:08.941Z,35101.75
2022-12-04T09:23:11.129Z,34457.19
2022-12-04T09:24:13.520Z,34457.19
2022-12-04T09:25:16.019Z,34780.53
2022-12-04T09:26:22.901Z,34461.72
2022-12-04T09:27:25.011Z,34458.25
2022-12-04T09:28:28.156Z,34778.66
2022-12-04T09:29:30.288Z,34452.94
2022-12-04T09:30:32.422Z,34133.41
2022-12-04T09:31:34.655Z,34132.59
2022-12-04T09:32:37.208Z,33813.88
2022-12-04T09:33:39.367Z,33173.19
2022-12-04T09:34:41.492Z,33169.88
2022-12-04T09:35:44.092Z,33490.94
2022-12-04T09:36:46.283Z,32534.31
2022-12-04T09:37:48.417Z,33497.91
2022-12-04T09:38:53.074Z,33176.00
2022-12-04T09:39:55.407Z,34779.72
2022-12-04T09:41:19.288Z,33181.88
2022-12-04T09:42:47.774Z,34145.25
2022-12-04T09:44:08.536Z,34784.56
2022-12-04T09:45:10.573Z,35099.56
2022-12-04T09:46:27.124Z,33497.66
2022-12-04T09:47:43.448Z,33493.53
2022-12-04T09:48:48.662Z,32844.53
2022-12-04T09:50:03.480Z,29959.69
2022-12-04T09:51:06.962Z,28355.13
2022-12-04T09:52:34.882Z,28034.22
2022-12-04T09:53:52.825Z,27718.97
2022-12-04T09:54:55.732Z,28680.88
2022-12-04T09:55:57.819Z,29644.06
2022-12-04T09:57:05.716Z,30925.38
2022-12-04T09:58:19.400Z,30922.06
2022-12-04T09:59:25.690Z,30599.06
2022-12-04T10:00:29.687Z,30275.00
2022-12-04T10:02:03.457Z,28673.03
2022-12-04T10:03:11.933Z,28037.19
2022-12-04T10:04:15.937Z,28998.38
2022-12-04T10:05:43.955Z,28356.44
2022-12-04T10:07:04.906Z,28035.47
2022-12-04T10:08:07.066Z,28675.66
2022-12-04T10:09:35.925Z,28356.44
2022-12-04T10:10:40.516Z,28360.31
2022-12-04T10:11:55.831Z,29001.69
2022-12-04T10:13:11.529Z,28686.13
2022-12-04T10:14:21.965Z,29972.28
2022-12-04T10:15:31.788Z,30938.16
2022-12-04T10:16:55.568Z,32544.06
2022-12-04T10:18:00.637Z,32549.09
2022-12-04T10:19:16.343Z,35432.59
2022-12-04T10:21:01.831Z,35116.41
2022-12-04T10:22:11.757Z,35441.91
2022-12-04T10:23:35.363Z,36408.84
2022-12-04T10:24:53.824Z,36417.63
2022-12-04T10:25:56.058Z,38985.38
2022-12-04T10:27:02.215Z,38987.78
2022-12-04T10:28:19.347Z,38664.56
2022-12-04T10:29:26.136Z,39302.50
2022-12-04T10:30:34.719Z,38014.66
2022-12-04T10:31:39.777Z,38015.56
2022-12-04T10:32:44.596Z,38010.53
2022-12-04T10:33:58.648Z,36727.25
2022-12-04T10:35:25.261Z,35763.09
2022-12-04T10:36:32.858Z,35443.00
2022-12-04T10:37:40.370Z,34798.53
2022-12-04T10:39:01.161Z,35120.50
2022-12-04T10:40:28.447Z,34476.38
2022-12-04T10:41:51.238Z,33509.03
2022-12-04T10:43:12.513Z,33187.00
2022-12-04T10:44:16.614Z,32865.03
2022-12-04T10:45:19.920Z,33183.44
2022-12-04T10:46:26.664Z,31899.31
2022-12-04T10:47:29.087Z,31255.91
2022-12-04T10:48:40.460Z,29974.81
2022-12-04T10:49:42.626Z,31254.72
2022-12-04T10:50:44.772Z,30933.44
2022-12-04T10:51:47.894Z,30294.66
2022-12-04T10:52:50.888Z,30293.75
2022-12-04T10:53:53.369Z,30294.22
2022-12-04T10:54:59.698Z,29655.38
2022-12-04T10:56:18.096Z,29656.28
2022-12-04T10:57:20.234Z,30296.50
2022-12-04T10:58:22.447Z,30299.06
2022-12-04T10:59:25.210Z,30621.09
2022-12-04T11:00:33.659Z,30622.50
2022-12-04T11:01:36.019Z,31262.84
2022-12-04T11:02:39.414Z,30945.03
2022-12-04T11:03:46.248Z,31268.13
2022-12-04T11:04:56.945Z,31591.50
2022-12-04T11:06:03.629Z,32233.56
2022-12-04T11:07:14.907Z,32237.25
2022-12-04T11:08:26.927Z,32237.25
2022-12-04T11:09:30.359Z,33200.28
2022-12-04T11:10:35.779Z,33840.47
2022-12-04T11:11:39.182Z,33517.78
2022-12-04T11:12:41.266Z,33196.19
2022-12-04T11:13:43.419Z,32873.63
2022-12-04T11:14:47.374Z,32875.13
2022-12-04T11:15:52.282Z,31590.06
2022-12-04T11:17:04.020Z,30947.66
2022-12-04T11:18:16.887Z,30626.72
2022-12-04T11:19:28.289Z,29346.25
2022-12-04T11:20:30.482Z,30307.63
2022-12-04T11:21:32.824Z,29986.03
2022-12-04T11:22:48.082Z,29345.56
2022-12-04T11:23:52.985Z,29668.50
2022-12-04T11:24:58.064Z,30309.03
2022-12-04T11:26:05.918Z,29985.56
2022-12-04T11:27:22.603Z,28380.13
2022-12-04T11:28:46.120Z,26778.69
2022-12-04T11:29:50.441Z,27737.69
2022-12-04T11:30:55.761Z,27416.50
2022-12-04T11:32:04.154Z,26774.22
2022-12-04T11:33:28.968Z,26133.44
2022-12-04T11:34:39.319Z,25813.72
2022-12-04T11:35:41.723Z,26132.81
2022-12-04T11:36:47.487Z,25489.97
2022-12-04T11:38:28.163Z,24529.25
2022-12-04T11:39:36.706Z,24849.69
2022-12-04T11:40:39.522Z,24205.78
2022-12-04T11:41:42.632Z,23885.78
2022-12-04T11:42:44.889Z,23563.69
2022-12-04T11:43:49.168Z,23564.72
2022-12-04T11:44:59.917Z,22923.41
2022-12-04T11:46:02.035Z,22283.66
2022-12-04T11:47:06.137Z,22604.47
2022-12-04T11:48:16.929Z,21642.94
2022-12-04T11:49:23.013Z,21965.66
2022-12-04T11:51:02.923Z,21965.66
2022-12-04T11:52:23.116Z,22286.28
2022-12-04T11:53:43.483Z,21968.09
2022-12-04T11:55:02.625Z,22928.88
2022-12-04T11:56:14.107Z,23247.34
2022-12-04T11:57:29.540Z,22607.66
2022-12-04T11:59:04.185Z,22606.31
2022-12-04T12:00:13.285Z,22605.63
2022-12-04T12:01:36.963Z,21963.69
2022-12-04T12:03:15.102Z,21001.34
2022-12-04T12:04:39.434Z,20040.69
2022-12-04T12:05:47.747Z,20359.56
2022-12-04T12:06:58.796Z,19079.47
2022-12-04T12:08:16.294Z,19400.34
2022-12-04T12:09:41.505Z,19399.19
2022-12-04T12:11:06.461Z,19079.75
2022-12-04T12:12:27.038Z,19078.09
2022-12-04T12:14:08.817Z,18116.72
2022-12-04T12:15:17.472Z,18114.63
2022-12-04T12:16:48.503Z,17154.09
2022-12-04T12:18:11.372Z,16513.91
2022-12-04T12:19:58.595Z,16192.91
2022-12-04T12:21:20.033Z,15551.88
2022-12-04T12:22:56.810Z,14271.25
2022-12-04T12:24:17.067Z,13628.59
2022-12-04T12:25:52.068Z,12669.28
2022-12-04T12:27:18.687Z,12030.56
2022-12-04T12:28:30.645Z,11709.28
2022-12-04T12:29:41.703Z,11390.06
2022-12-04T12:31:13.048Z,11071.28
2022-12-04T12:32:24.052Z,11071.66
2022-12-04T12:33:31.086Z,12030.97
2022-12-04T12:34:38.972Z,11711.53
2022-12-04T12:36:00.720Z,12032.88
2022-12-04T12:37:10.218Z,13310.06
2022-12-04T12:38:18.308Z,12350.38
2022-12-04T12:39:26.638Z,11711.78
2022-12-04T12:40:31.695Z,12669.63
2022-12-04T12:41:47.179Z,11392.09
2022-12-04T12:42:58.436Z,11712.38
2022-12-04T12:44:05.104Z,12350.81
2022-12-04T12:45:24.958Z,11711.16
2022-12-04T12:46:34.076Z,11392.25
2022-12-04T12:47:45.474Z,11393.75
2022-12-04T12:49:02.758Z,12352.22
2022-12-04T12:50:16.503Z,12673.66
2022-12-04T12:51:30.145Z,12675.28
2022-12-04T12:52:51.655Z,12994.94
2022-12-04T12:53:57.073Z,13955.88
2022-12-04T12:55:05.575Z,13957.31
2022-12-04T12:56:13.086Z,14917.22
2022-12-04T12:57:23.136Z,14919.09
2022-12-04T12:58:33.078Z,15879.16
2022-12-04T12:59:42.057Z,16518.69
2022-12-04T13:01:02.628Z,16518.22
2022-12-04T13:02:22.976Z,16196.22
2022-12-04T13:03:33.703Z,15556.47
2022-12-04T13:04:40.308Z,15237.34
2022-12-04T13:05:48.844Z,15235.63
2022-12-04T13:07:06.616Z,14595.72
2022-12-04T13:08:50.691Z,14276.69
2022-12-04T13:10:24.259Z,13956.84
2022-12-04T13:11:28.769Z,14275.69
2022-12-04T13:12:44.797Z,13956.94
2022-12-04T13:13:53.154Z,13957.41
2022-12-04T13:14:55.852Z,14277.47
2022-12-04T13:16:23.275Z,13959.34
2022-12-04T13:17:31.477Z,14600.81
2022-12-04T13:19:01.395Z,15880.38
2022-12-04T13:20:12.935Z,15879.72
2022-12-04T13:21:29.842Z,14919.09
2022-12-04T13:22:35.226Z,15877.69
2022-12-04T13:24:21.497Z,14277.88
2022-12-04T13:25:39.493Z,13958.19
2022-12-04T13:26:54.073Z,14598.16
2022-12-04T13:28:08.541Z,13639.63
2022-12-04T13:29:48.123Z,13957.41
2022-12-04T13:30:56.498Z,13317.97
2022-12-04T13:32:04.711Z,13637.09
2022-12-04T13:33:25.113Z,12998.38
2022-12-04T13:34:35.597Z,13316.25
2022-12-04T13:35:52.709Z,11717.75
2022-12-04T13:37:01.047Z,11717.91
2022-12-04T13:38:35.509Z,12036.41
2022-12-04T13:40:15.263Z,10437.53
2022-12-04T13:41:21.347Z,11077.00
2022-12-04T13:42:29.089Z,10437.00
2022-12-04T13:43:42.425Z,10436.78
2022-12-04T13:44:54.722Z,9477.47
2022-12-04T13:46:00.760Z,9477.50
2022-12-04T13:47:06.725Z,9157.28
2022-12-04T13:48:10.715Z,9156.94
2022-12-04T13:49:19.643Z,8836.88
2022-12-04T13:50:35.095Z,7878.31
2022-12-04T13:51:40.789Z,7558.22
2022-12-04T13:52:43.237Z,7237.88
2022-12-04T13:53:46.200Z,6918.34
2022-12-04T13:54:59.573Z,5959.97
2022-12-04T13:56:07.546Z,5959.84
2022-12-04T13:57:17.059Z,5001.25
2022-12-04T13:58:19.480Z,5320.25
2022-12-04T13:59:28.169Z,4042.59
2022-12-04T14:00:35.641Z,3723.13
2022-12-04T14:01:41.364Z,3403.78
2022-12-04T14:02:51.690Z,2765.03
2022-12-04T14:03:59.549Z,2765.03
2022-12-04T14:05:07.315Z,2445.72
2022-12-04T14:06:32.093Z,1807.13
2022-12-04T14:07:37.755Z,1487.94
2022-12-04T14:08:43.160Z,1487.97
2022-12-04T14:09:53.424Z,849.53
2022-12-04T14:11:12.827Z,-108.03
2022-12-04T14:12:17.171Z,-108.16
2022-12-04T14:13:23.586Z,-108.16
2022-12-04T14:14:27.694Z,-427.25
2022-12-04T14:15:35.000Z,-426.97
2022-12-04T14:16:41.076Z,-746.31
2022-12-04T14:17:55.837Z,-1384.66
2022-12-04T14:19:00.709Z,-1384.78
2022-12-04T14:20:21.586Z,-1385.22
2022-12-04T14:21:24.662Z,-746.47
2022-12-04T14:22:43.328Z,-1065.72
2022-12-04T14:23:45.627Z,-1065.78
2022-12-04T14:24:47.785Z,-746.19
2022-12-04T14:25:51.244Z,-1065.50
2022-12-04T14:27:11.105Z,-1065.53
2022-12-04T14:28:41.667Z,-1384.97
2022-12-04T14:29:49.467Z,-1384.78
2022-12-04T14:31:18.762Z,-1384.78
2022-12-04T14:32:27.806Z,-1385.03
2022-12-04T14:33:32.150Z,-746.19
2022-12-04T14:34:36.271Z,-1384.56
2022-12-04T14:35:47.855Z,-1384.97
2022-12-04T14:36:55.057Z,-1385.03
2022-12-04T14:38:06.547Z,-427.19
2022-12-04T14:39:15.433Z,-426.97
2022-12-04T14:40:51.923Z,-746.47
2022-12-04T14:42:06.269Z,-427.63
2022-12-04T14:43:18.584Z,-427.69
2022-12-04T14:44:39.132Z,-427.66
2022-12-04T14:45:51.021Z,-108.41
2022-12-04T14:46:58.207Z,210.84
2022-12-04T14:48:24.690Z,-108.41
2022-12-04T14:50:00.545Z,-108.50
2022-12-04T14:51:25.298Z,210.69
2022-12-04T14:52:35.200Z,849.31
2022-12-04T14:53:49.645Z,849.25
2022-12-04T14:55:29.217Z,529.94
2022-12-04T14:57:09.287Z,529.69
2022-12-04T14:58:30.780Z,1168.38
2022-12-04T14:59:45.650Z,1487.63
2022-12-04T15:00:53.171Z,1487.56
2022-12-04T15:01:56.017Z,2126.38
2022-12-04T15:03:00.734Z,2126.34
2022-12-04T15:04:34.689Z,2126.34
2022-12-04T15:05:37.269Z,2765.09
2022-12-04T15:06:40.080Z,2126.34
2022-12-04T15:07:49.983Z,2445.75
2022-12-04T15:09:16.377Z,2445.75
2022-12-04T15:10:46.007Z,2445.75
2022-12-04T15:12:09.422Z,2126.38
2022-12-04T15:13:16.003Z,1807.06
2022-12-04T15:14:20.632Z,2126.38
2022-12-04T15:15:28.133Z,1807.00
2022-12-04T15:16:30.374Z,2126.34
2022-12-04T15:17:32.534Z,2445.75
2022-12-04T15:18:39.408Z,2765.16
2022-12-04T15:19:42.662Z,2445.75
2022-12-04T15:20:57.113Z,2445.75
2022-12-04T15:21:59.301Z,2445.75
2022-12-04T15:23:03.232Z,2765.13
2022-12-04T15:24:10.581Z,2445.75
2022-12-04T15:25:22.503Z,2126.34
2022-12-04T15:26:26.748Z,2126.34
2022-12-04T15:27:32.675Z,2445.78
2022-12-04T15:28:44.204Z,3084.78
2022-12-04T15:29:49.114Z,3084.72
2022-12-04T15:30:52.520Z,4043.06
2022-12-04T15:31:59.972Z,3084.78
2022-12-04T15:33:02.228Z,3723.72
2022-12-04T15:34:13.185Z,3723.69
2022-12-04T15:35:31.899Z,2765.34
2022-12-04T15:36:46.602Z,3723.78
2022-12-04T15:37:49.198Z,3723.91
2022-12-04T15:38:52.905Z,3723.88
2022-12-04T15:39:56.393Z,3723.84
2022-12-04T15:41:00.686Z,3723.97
2022-12-04T15:42:24.444Z,3723.97
2022-12-04T15:43:31.276Z,3404.41
2022-12-04T15:44:35.279Z,4363.03
2022-12-04T15:45:37.757Z,4362.88
2022-12-04T15:46:43.610Z,3404.31
2022-12-04T15:47:45.840Z,3404.03
2022-12-04T15:48:49.122Z,3084.59
2022-12-04T15:49:51.578Z,2445.78
2022-12-04T15:51:02.776Z,2445.78
2022-12-04T15:52:10.791Z,2765.22
2022-12-04T15:53:20.799Z,2445.78
2022-12-04T15:54:26.172Z,2445.78
2022-12-04T15:55:32.414Z,2126.31
2022-12-04T15:56:34.537Z,3084.69
2022-12-04T15:57:42.539Z,2445.78
2022-12-04T15:58:57.467Z,2126.31
2022-12-04T16:00:05.295Z,2445.78
2022-12-04T16:01:10.581Z,2765.31
2022-12-04T16:02:33.075Z,3084.84
2022-12-04T16:03:44.075Z,2765.31
2022-12-04T16:04:46.351Z,3723.84
2022-12-04T16:05:48.656Z,3723.72
2022-12-04T16:06:53.713Z,3084.78
2022-12-04T16:07:58.662Z,2765.25
2022-12-04T16:09:18.512Z,2765.25
2022-12-04T16:10:30.152Z,2126.28
2022-12-04T16:11:36.371Z,2445.81
2022-12-04T16:12:38.827Z,3404.38
2022-12-04T16:13:40.965Z,3404.31
2022-12-04T16:14:43.168Z,2765.31
2022-12-04T16:15:45.378Z,3404.31
2022-12-04T16:16:50.099Z,2765.28
2022-12-04T16:17:53.186Z,2765.28
2022-12-04T16:18:55.731Z,2765.34
2022-12-04T16:19:59.160Z,3084.97
2022-12-04T16:21:01.450Z,4043.56
2022-12-04T16:22:12.068Z,2765.34
2022-12-04T16:23:14.212Z,3084.88
2022-12-04T16:24:17.848Z,3084.84
2022-12-04T16:25:20.296Z,2765.34
2022-12-04T16:26:23.797Z,2765.34
2022-12-04T16:27:25.954Z,2765.38
2022-12-04T16:28:28.112Z,3084.94
2022-12-04T16:29:31.417Z,3084.91
2022-12-04T16:30:35.581Z,3084.97
2022-12-04T16:31:38.690Z,3085.03
2022-12-04T16:32:41.164Z,3724.09
2022-12-04T16:33:43.262Z,3084.97
2022-12-04T16:34:46.005Z,3404.47
2022-12-04T16:35:48.289Z,2765.38
2022-12-04T16:36:50.400Z,3084.97
2022-12-04T16:37:52.638Z,3084.91
2022-12-04T16:38:55.021Z,3084.88
2022-12-04T16:39:58.368Z,2765.38
2022-12-04T16:41:00.472Z,2765.31
2022-12-04T16:42:02.590Z,2445.81
2022-12-04T16:43:04.692Z,2126.31
2022-12-04T16:44:13.911Z,1806.81
2022-12-04T16:45:31.337Z,848.41
2022-12-04T16:46:33.678Z,848.44
2022-12-04T16:47:36.008Z,848.47
2022-12-04T16:48:38.460Z,848.41
2022-12-04T16:49:41.616Z,1167.91
2022-12-04T16:50:44.649Z,1167.94
2022-12-04T16:51:51.117Z,848.47
2022-12-04T16:52:53.996Z,529.28
2022-12-04T16:53:56.234Z,529.22
2022-12-04T16:55:03.127Z,209.75
2022-12-04T16:56:09.231Z,-109.75
2022-12-04T16:57:11.415Z,209.78
2022-12-04T16:58:14.074Z,209.75
2022-12-04T16:59:16.247Z,209.66
2022-12-04T17:00:19.426Z,209.75
2022-12-04T17:01:26.290Z,-109.47
2022-12-04T17:02:28.950Z,-428.75
2022-12-04T17:03:33.589Z,-428.84
2022-12-04T17:04:36.858Z,-748.03
2022-12-04T17:05:39.086Z,-748.19
2022-12-04T17:06:41.812Z,-1067.50
2022-12-04T17:07:44.612Z,-1067.59
2022-12-04T17:08:47.149Z,-1067.84
2022-12-04T17:09:49.475Z,-1067.72
2022-12-04T17:10:52.288Z,-1067.69
2022-12-04T17:11:54.446Z,-1067.53
2022-12-04T17:12:57.480Z,-1386.72
2022-12-04T17:14:00.123Z,-1386.97
2022-12-04T17:15:05.002Z,-1386.78
2022-12-04T17:16:07.489Z,-1705.91
2022-12-04T17:17:09.632Z,-1705.56
2022-12-04T17:18:16.356Z,-2025.25
2022-12-04T17:19:21.656Z,-2025.19
2022-12-04T17:20:24.276Z,-2344.72
2022-12-04T17:21:26.475Z,-2663.88
2022-12-04T17:22:28.883Z,-2664.16
2022-12-04T17:23:30.979Z,-2664.28
2022-12-04T17:24:33.411Z,-2664.03
2022-12-04T17:25:35.483Z,-2982.84
2022-12-04T17:26:37.708Z,-2982.84
2022-12-04T17:27:40.393Z,-3302.31
2022-12-04T17:28:42.712Z,-3301.97
2022-12-04T17:29:44.858Z,-3302.63
2022-12-04T17:30:47.043Z,-2983.31
2022-12-04T17:31:49.308Z,-3302.38
2022-12-04T17:32:51.537Z,-3302.31
2022-12-04T17:33:53.743Z,-3621.47
2022-12-04T17:34:56.205Z,-3621.47
2022-12-04T17:36:00.259Z,-3940.75
2022-12-04T17:37:02.469Z,-3940.66
2022-12-04T17:38:06.350Z,-3940.56
2022-12-04T17:39:11.539Z,-4259.09
2022-12-04T17:40:14.670Z,-4578.66
2022-12-04T17:41:16.893Z,-4578.56
2022-12-04T17:42:19.422Z,-4897.59
2022-12-04T17:43:22.332Z,-4897.94
2022-12-04T17:44:24.532Z,-4897.94
2022-12-04T17:45:26.697Z,-5217.41
2022-12-04T17:46:29.054Z,-4898.31
2022-12-04T17:47:31.308Z,-4898.19
2022-12-04T17:48:33.436Z,-4898.31
2022-12-04T17:49:35.741Z,-5217.56
2022-12-04T17:50:37.825Z,-4898.78
2022-12-04T17:51:39.964Z,-5217.91
2022-12-04T17:52:42.085Z,-4898.53
2022-12-04T17:53:44.964Z,-5217.31
2022-12-04T17:54:52.408Z,-5217.31
2022-12-04T17:55:55.078Z,-5856.00
2022-12-04T17:56:58.145Z,-5856.16
2022-12-04T17:58:00.832Z,-5537.63
2022-12-04T17:59:03.263Z,-5537.69
2022-12-04T18:00:06.475Z,-5537.94
2022-12-04T18:01:23.667Z,-5857.22
2022-12-04T18:02:25.863Z,-5537.44
2022-12-04T18:03:28.347Z,-5537.28
2022-12-04T18:04:30.577Z,-5856.00
2022-12-04T18:05:32.940Z,-5856.69
2022-12-04T18:06:38.023Z,-5856.75
2022-12-04T18:07:40.139Z,-5856.47
2022-12-04T18:08:48.155Z,-6176.00
2022-12-04T18:09:52.046Z,-5856.69
2022-12-04T18:10:54.734Z,-6175.94
2022-12-04T18:11:58.552Z,-5856.69
2022-12-04T18:13:00.639Z,-6175.78
2022-12-04T18:14:11.445Z,-6495.25
2022-12-04T18:15:14.309Z,-6494.75
2022-12-04T18:16:16.763Z,-6495.03
2022-12-04T18:17:20.877Z,-6815.00
2022-12-04T18:18:23.026Z,-6815.47
2022-12-04T18:19:28.297Z,-6815.38
2022-12-04T18:20:30.882Z,-6495.75
2022-12-04T18:21:34.143Z,-6815.31
2022-12-04T18:22:36.552Z,-6814.94
2022-12-04T18:23:45.078Z,-7133.66
2022-12-04T18:24:47.305Z,-7134.28
2022-12-04T18:25:57.771Z,-7453.19
2022-12-04T18:27:00.006Z,-7133.66
2022-12-04T18:28:02.269Z,-7452.88
2022-12-04T18:29:04.846Z,-7771.94
2022-12-04T18:30:07.633Z,-7771.94
2022-12-04T18:31:10.367Z,-8090.81
2022-12-04T18:32:12.633Z,-8090.88
2022-12-04T18:33:18.967Z,-7771.59
2022-12-04T18:34:21.968Z,-8091.31
2022-12-04T18:35:24.067Z,-8410.53
2022-12-04T18:36:30.116Z,-8410.88
2022-12-04T18:37:34.421Z,-8410.78
2022-12-04T18:38:37.371Z,-8090.63
2022-12-04T18:39:39.517Z,-8409.72
2022-12-04T18:40:42.881Z,-8729.38
2022-12-04T18:41:45.532Z,-8728.66
2022-12-04T18:42:47.656Z,-9047.81
2022-12-04T18:43:50.643Z,-9047.25
2022-12-04T18:44:52.761Z,-9367.75
2022-12-04T18:46:04.052Z,-9367.38
2022-12-04T18:47:09.089Z,-9367.38
2022-12-04T18:48:16.896Z,-9686.91
2022-12-04T18:49:19.128Z,-9686.34
2022-12-04T18:50:21.256Z,-9686.91
2022-12-04T18:51:29.414Z,-9687.50
2022-12-04T18:52:35.676Z,-9687.72
2022-12-04T18:53:37.942Z,-9687.31
2022-12-04T18:54:40.050Z,-9367.38
2022-12-04T18:55:42.118Z,-9686.34
2022-12-04T18:56:44.861Z,-9686.13
2022-12-04T18:57:46.974Z,-10004.69
2022-12-04T18:58:49.533Z,-10004.69
2022-12-04T18:59:52.334Z,-10005.09
2022-12-04T19:00:54.539Z,-10323.50
2022-12-04T19:01:56.757Z,-10642.72
2022-12-04T19:02:58.929Z,-10962.06
2022-12-04T19:04:04.454Z,-10963.16
2022-12-04T19:05:06.843Z,-11283.50
2022-12-04T19:06:09.084Z,-10964.44
2022-12-04T19:07:11.328Z,-10646.03
2022-12-04T19:08:13.645Z,-10326.91
2022-12-04T19:09:35.477Z,-10328.69
2022-12-04T19:10:45.043Z,-9688.91
2022-12-04T19:11:47.868Z,-9688.09
2022-12-04T19:12:52.232Z,-10006.91
2022-12-04T19:13:54.799Z,-10326.72
2022-12-04T19:14:56.959Z,-10327.22
2022-12-04T19:15:59.125Z,-10327.53
2022-12-04T19:17:01.406Z,-10327.75
2022-12-04T19:18:03.624Z,-10327.84
2022-12-04T19:19:05.745Z,-10328.38
2022-12-04T19:20:08.789Z,-10009.63
2022-12-04T19:21:11.349Z,-10008.31
2022-12-04T19:22:13.651Z,-10006.81
2022-12-04T19:23:15.767Z,-10326.09
2022-12-04T19:24:18.063Z,-10645.59
2022-12-04T19:25:20.148Z,-10964.22
2022-12-04T19:26:23.166Z,-11283.72
2022-12-04T19:27:27.624Z,-11282.28
2022-12-04T19:28:30.023Z,-11601.19
2022-12-04T19:29:32.096Z,-11920.91
2022-12-04T19:30:34.952Z,-11920.56
2022-12-04T19:31:37.953Z,-11921.47
2022-12-04T19:32:40.284Z,-12239.66
2022-12-04T19:33:42.416Z,-12238.72
2022-12-04T19:34:44.545Z,-12239.19
2022-12-04T19:36:03.797Z,-12878.78
2022-12-04T19:37:06.912Z,-12558.06
2022-12-04T19:38:09.106Z,-12557.94
2022-12-04T19:39:11.313Z,-12877.66
2022-12-04T19:40:14.090Z,-12878.41
2022-12-04T19:41:27.955Z,-13197.25
2022-12-04T19:42:31.502Z,-13197.13
2022-12-04T19:43:35.412Z,-13196.50
2022-12-04T19:44:48.269Z,-12877.41
2022-12-04T19:45:51.144Z,-13195.72
2022-12-04T19:46:53.312Z,-13515.31
2022-12-04T19:47:55.428Z,-13196.13
2022-12-04T19:49:03.426Z,-13834.00
2022-12-04T19:50:06.244Z,-13831.09
2022-12-04T19:51:15.415Z,-14151.06
2022-12-04T19:52:17.701Z,-14469.09
2022-12-04T19:53:20.076Z,-14469.66
2022-12-04T19:54:23.716Z,-14469.78
2022-12-04T19:55:25.822Z,-14787.69
2022-12-04T19:56:31.366Z,-15107.25
2022-12-04T19:57:33.503Z,-15106.25
2022-12-04T19:58:35.854Z,-15107.25
2022-12-04T19:59:43.081Z,-15107.81
2022-12-04T20:00:48.453Z,-15109.38
2022-12-04T20:01:52.392Z,-14791.19
2022-12-04T20:02:54.876Z,-14471.72
2022-12-04T20:03:57.728Z,-14473.38
2022-12-04T20:04:59.868Z,-14154.84
2022-12-04T20:06:07.867Z,-14155.91
2022-12-04T20:07:10.284Z,-13835.19
2022-12-04T20:09:18.068Z,-14473.78
2022-12-04T20:10:20.936Z,-14154.03
2022-12-04T20:11:23.879Z,-14154.16
2022-12-04T20:12:25.983Z,-14473.25
2022-12-04T20:13:28.296Z,-14474.34
2022-12-04T20:14:31.575Z,-14474.75
2022-12-04T20:15:37.646Z,-14792.72
2022-12-04T20:16:40.839Z,-14792.44
2022-12-04T20:17:43.291Z,-14791.91
2022-12-04T20:18:45.684Z,-14792.44
2022-12-04T20:19:47.805Z,-15111.66
2022-12-04T20:21:01.477Z,-15111.38
2022-12-04T20:22:03.888Z,-15110.66
2022-12-04T20:23:05.973Z,-15111.53
2022-12-04T20:24:08.449Z,-15430.75
2022-12-04T20:25:10.617Z,-15110.53
2022-12-04T20:26:14.319Z,-15429.44
2022-12-04T20:27:16.735Z,-15428.84
2022-12-04T20:28:20.144Z,-15748.91
2022-12-04T20:29:22.732Z,-15749.34
2022-12-04T20:30:24.917Z,-15749.50
2022-12-04T20:31:38.756Z,-16066.75
2022-12-04T20:32:40.857Z,-16064.78
2022-12-04T20:33:44.545Z,-16384.69
2022-12-04T20:34:46.781Z,-16702.75
2022-12-04T20:35:49.062Z,-16700.56
2022-12-04T20:36:51.250Z,-17018.88
2022-12-04T20:37:53.352Z,-17337.13
2022-12-04T20:38:58.794Z,-17973.59
2022-12-04T20:40:02.481Z,-17972.44
2022-12-04T20:41:10.007Z,-18612.03
2022-12-04T20:42:12.186Z,-18932.63
2022-12-04T20:43:14.405Z,-18611.69
2022-12-04T20:44:18.879Z,-18612.88
2022-12-04T20:45:21.147Z,-18612.53
2022-12-04T20:46:26.535Z,-19251.34
2022-12-04T20:47:29.396Z,-18930.91
2022-12-04T20:48:31.509Z,-18931.25
2022-12-04T20:49:33.626Z,-18932.47
2022-12-04T20:50:35.881Z,-18931.25
2022-12-04T20:51:40.684Z,-18931.06
2022-12-04T20:52:42.956Z,-19249.06
2022-12-04T20:53:46.312Z,-19249.75
2022-12-04T20:54:48.495Z,-19250.81
2022-12-04T20:55:54.886Z,-19573.09
2022-12-04T20:56:57.229Z,-19253.28
2022-12-04T20:57:59.499Z,-18614.78
2022-12-04T20:59:05.099Z,-18933.50
2022-12-04T21:00:08.014Z,-18933.69
2022-12-04T21:01:18.364Z,-18933.84
2022-12-04T21:02:20.561Z,-18614.78
2022-12-04T21:03:23.079Z,-18615.13
2022-12-04T21:04:25.258Z,-18614.44
2022-12-04T21:05:27.408Z,-18614.25
2022-12-04T21:06:37.153Z,-18935.06
2022-12-04T21:07:39.373Z,-18614.94
2022-12-04T21:08:56.035Z,-18614.44
2022-12-04T21:09:58.747Z,-18615.47
2022-12-04T21:11:01.296Z,-18297.38
2022-12-04T21:12:24.006Z,-18298.56
2022-12-04T21:13:44.910Z,-17979.94
2022-12-04T21:15:05.620Z,-17663.91
2022-12-04T21:16:10.437Z,-17347.44
2022-12-04T21:17:18.410Z,-17027.75
2022-12-04T21:18:21.787Z,-16708.97
2022-12-04T21:19:24.519Z,-16709.91
2022-12-04T21:20:27.066Z,-16390.50
2022-12-04T21:21:29.161Z,-16072.94
2022-12-04T21:22:31.713Z,-16714.91
2022-12-04T21:23:35.876Z,-16077.59
2022-12-04T21:24:39.189Z,-15438.16
2022-12-04T21:25:41.323Z,-15437.00
2022-12-04T21:26:44.523Z,-15440.19
2022-12-04T21:27:46.654Z,-15440.91
2022-12-04T21:28:48.799Z,-14800.59
2022-12-04T21:29:51.400Z,-14482.72
2022-12-04T21:31:00.578Z,-14482.19
2022-12-04T21:32:03.320Z,-14481.09
2022-12-04T21:33:05.472Z,-14481.91
2022-12-04T21:34:12.484Z,-14805.78
2022-12-04T21:35:14.594Z,-14166.56
2022-12-04T21:36:16.750Z,-13528.56
2022-12-04T21:37:19.003Z,-13528.56
2022-12-04T21:38:21.495Z,-13849.38
2022-12-04T21:39:23.912Z,-13531.16
2022-12-04T21:40:26.319Z,-13212.16
2022-12-04T21:41:47.221Z,-13212.00
2022-12-04T21:42:49.535Z,-12575.13
2022-12-04T21:43:51.692Z,-12576.47
2022-12-04T21:44:53.979Z,-11935.72
2022-12-04T21:46:16.993Z,-12253.88
2022-12-04T21:47:19.675Z,-12572.31
2022-12-04T21:48:22.294Z,-12573.41
2022-12-04T21:49:26.010Z,-12573.91
2022-12-04T21:50:28.939Z,-12572.81
2022-12-04T21:51:56.290Z,-12891.84